Time;durP1;ratioP1;P1;durP2;ratioP2;P2;SDS_P1;SDS_P2;PMS_P1;PMS_P2;Temp;Humidity;BMP_temperature;BMP_pressure;BME280_temperature;BME280_humidity;BME280_pressure;Samples;Min_cycle;Max_cycle;Signal;HPM_P1;HPM_P2
2022/03/17 00:00:40;;;;;;;37.95;21.40;;;;;;;;;;4981926;28;20111;-81
2022/03/17 00:03:10;;;;;;;35.42;21.33;;;;;;;;;;4981326;28;20510;-81
2022/03/17 00:05:39;;;;;;;37.08;20.90;;;;;;;;;;4949931;28;20075;-81
2022/03/17 00:08:06;;;;;;;39.20;20.20;;;;;;;;;;4980288;28;20042;-82
2022/03/17 00:10:38;;;;;;;38.92;22.60;;;;;;;;;;4980409;28;20093;-82
2022/03/17 00:13:05;;;;;;;36.03;20.63;;;;;;;;;;4963646;28;20043;-82
2022/03/17 00:15:32;;;;;;;36.70;21.02;;;;;;;;;;4963099;28;20043;-82
2022/03/17 00:18:00;;;;;;;42.60;23.83;;;;;;;;;;4980480;28;20168;-82
2022/03/17 00:20:27;;;;;;;41.38;21.27;;;;;;;;;;4980387;28;20597;-82
2022/03/17 00:22:54;;;;;;;35.72;21.05;;;;;;;;;;4949530;28;20047;-82
2022/03/17 00:25:21;;;;;;;40.00;22.65;;;;;;;;;;4966184;28;20050;-82
2022/03/17 00:27:50;;;;;;;36.13;20.38;;;;;;;;;;4983621;28;20160;-82
2022/03/17 00:30:17;;;;;;;38.70;21.27;;;;;;;;;;4984952;28;20361;-81
2022/03/17 00:32:44;;;;;;;38.65;20.88;;;;;;;;;;4966339;28;20046;-82
2022/03/17 00:38:03;;;;;;;38.40;21.58;;;;;;;;;;4987540;28;20104;-81
2022/03/17 00:40:30;;;;;;;38.47;22.92;;;;;;;;;;5022280;28;20042;-82
2022/03/17 00:43:01;;;;;;;34.83;21.10;;;;;;;;;;5022676;28;20045;-81
2022/03/17 00:45:28;;;;;;;35.95;21.02;;;;;;;;;;4988493;28;20049;-81
2022/03/17 00:47:55;;;;;;;38.25;22.40;;;;;;;;;;5021386;28;20185;-82
2022/03/17 00:50:23;;;;;;;36.08;20.08;;;;;;;;;;5003773;28;20045;-82
2022/03/17 00:52:50;;;;;;;36.28;21.30;;;;;;;;;;5022473;28;20069;-81
2022/03/17 00:55:18;;;;;;;40.80;22.02;;;;;;;;;;5004338;28;20054;-82
2022/03/17 00:57:45;;;;;;;37.67;21.05;;;;;;;;;;5004284;28;20475;-82
2022/03/17 01:00:18;;;;;;;39.20;23.17;;;;;;;;;;5021315;28;20045;-82
2022/03/17 01:02:46;;;;;;;34.58;19.77;;;;;;;;;;5022790;28;20100;-82
2022/03/17 01:05:14;;;;;;;37.53;20.77;;;;;;;;;;5023214;28;20038;-82
2022/03/17 01:07:42;;;;;;;34.22;20.17;;;;;;;;;;5022925;28;20435;-82
2022/03/17 01:10:11;;;;;;;39.20;21.52;;;;;;;;;;5021258;28;20042;-81
2022/03/17 01:12:38;;;;;;;34.38;20.42;;;;;;;;;;5022445;28;20057;-82
2022/03/17 01:15:07;;;;;;;34.30;19.05;;;;;;;;;;5022724;28;20100;-82
2022/03/17 01:17:36;;;;;;;35.40;21.20;;;;;;;;;;5022024;28;20089;-82
2022/03/17 01:20:05;;;;;;;35.78;19.80;;;;;;;;;;5021328;28;20100;-81
2022/03/17 01:22:32;;;;;;;32.22;19.70;;;;;;;;;;5004263;28;20046;-81
2022/03/17 01:25:00;;;;;;;36.45;21.13;;;;;;;;;;5003844;28;20042;-81
2022/03/17 01:27:29;;;;;;;34.60;19.85;;;;;;;;;;5003844;28;20054;-81
2022/03/17 01:29:56;;;;;;;34.95;20.77;;;;;;;;;;5020781;28;20042;-81
2022/03/17 01:32:25;;;;;;;34.70;19.60;;;;;;;;;;5021748;28;20084;-81
2022/03/17 01:34:56;;;;;;;36.22;20.30;;;;;;;;;;5021771;28;20068;-82
2022/03/17 01:37:23;;;;;;;33.50;20.17;;;;;;;;;;5020029;28;20054;-81
2022/03/17 01:39:53;;;;;;;38.28;22.42;;;;;;;;;;5001346;28;20084;-81
2022/03/17 01:42:21;;;;;;;34.00;19.77;;;;;;;;;;5002386;28;20042;-82
2022/03/17 01:44:48;;;;;;;34.78;19.00;;;;;;;;;;4999538;28;20058;-81
2022/03/17 01:47:33;;;;;;;33.42;20.10;;;;;;;;;;4999690;28;20212;-81
2022/03/17 01:50:06;;;;;;;36.17;21.23;;;;;;;;;;5000859;28;20046;-81
2022/03/17 01:52:35;;;;;;;35.03;19.70;;;;;;;;;;5000749;28;20074;-81
2022/03/17 01:55:04;;;;;;;34.00;19.38;;;;;;;;;;4999634;28;20050;-81
2022/03/17 01:57:33;;;;;;;33.35;19.60;;;;;;;;;;5000774;28;20537;-81
2022/03/17 02:00:01;;;;;;;33.75;18.90;;;;;;;;;;4999209;28;20039;-81
2022/03/17 02:02:28;;;;;;;33.72;19.50;;;;;;;;;;5002110;28;20050;-82
2022/03/17 02:04:56;;;;;;;31.83;18.13;;;;;;;;;;4986441;28;20053;-81
2022/03/17 02:07:25;;;;;;;31.38;18.88;;;;;;;;;;5002367;28;20042;-81
2022/03/17 02:09:52;;;;;;;34.60;19.50;;;;;;;;;;5000062;28;20046;-81
2022/03/17 02:15:05;;;;;;;30.27;17.77;;;;;;;;;;5001330;28;20057;-82
2022/03/17 02:17:39;;;;;;;35.67;19.70;;;;;;;;;;5000921;28;20432;-81
2022/03/17 02:20:08;;;;;;;32.78;17.90;;;;;;;;;;5000895;28;20050;-81
2022/03/17 02:22:40;;;;;;;33.40;19.50;;;;;;;;;;4999975;28;20085;-81
2022/03/17 02:27:54;;;;;;;30.50;18.45;;;;;;;;;;4998902;28;20054;-81
2022/03/17 02:30:24;;;;;;;32.33;18.17;;;;;;;;;;4982925;28;20074;-81
2022/03/17 02:32:52;;;;;;;30.90;18.20;;;;;;;;;;5000789;28;20046;-82
2022/03/17 02:35:25;;;;;;;31.10;18.15;;;;;;;;;;4981618;28;20054;-81
2022/03/17 02:37:54;;;;;;;31.45;18.40;;;;;;;;;;5000044;28;20050;-82
2022/03/17 02:40:25;;;;;;;33.78;19.27;;;;;;;;;;5000573;28;20471;-81
2022/03/17 02:42:57;;;;;;;36.72;19.58;;;;;;;;;;5000549;28;20475;-81
2022/03/17 02:45:24;;;;;;;34.17;18.73;;;;;;;;;;4999251;28;20129;-81
2022/03/17 02:47:52;;;;;;;31.67;19.02;;;;;;;;;;5000709;28;20077;-81
2022/03/17 02:50:19;;;;;;;31.08;18.48;;;;;;;;;;4982764;28;20485;-81
2022/03/17 02:52:47;;;;;;;30.58;16.77;;;;;;;;;;4999437;28;20451;-81
2022/03/17 02:55:15;;;;;;;29.80;17.35;;;;;;;;;;4967289;28;20050;-81
2022/03/17 02:57:46;;;;;;;28.65;17.60;;;;;;;;;;4999944;28;20053;-81
2022/03/17 03:00:16;;;;;;;34.03;19.10;;;;;;;;;;5000525;28;20050;-81
2022/03/17 03:02:46;;;;;;;31.02;18.65;;;;;;;;;;5000422;28;20435;-81
2022/03/17 03:05:13;;;;;;;35.33;19.63;;;;;;;;;;4999508;28;20053;-81
2022/03/17 03:07:41;;;;;;;32.42;19.00;;;;;;;;;;5000994;28;20347;-81
2022/03/17 03:10:10;;;;;;;33.55;19.83;;;;;;;;;;5000949;28;20050;-81
2022/03/17 03:12:40;;;;;;;37.53;18.45;;;;;;;;;;5000995;28;20042;-81
2022/03/17 03:15:10;;;;;;;36.83;21.08;;;;;;;;;;4969144;28;20049;-81
2022/03/17 03:17:37;;;;;;;33.53;20.73;;;;;;;;;;5001916;28;20120;-81
2022/03/17 03:20:06;;;;;;;33.58;19.25;;;;;;;;;;4984176;28;20054;-81
2022/03/17 03:22:39;;;;;;;35.00;19.63;;;;;;;;;;4983786;28;20064;-81
2022/03/17 03:25:06;;;;;;;32.88;20.00;;;;;;;;;;5007641;28;20043;-81
2022/03/17 03:27:33;;;;;;;34.45;19.55;;;;;;;;;;4992280;28;20395;-82
2022/03/17 03:30:01;;;;;;;33.15;18.23;;;;;;;;;;4992600;28;20091;-81
2022/03/17 03:32:30;;;;;;;33.55;20.10;;;;;;;;;;5012002;28;20030;-81
2022/03/17 03:34:57;;;;;;;30.73;17.65;;;;;;;;;;5012147;28;20042;-81
2022/03/17 03:37:23;;;;;;;35.92;20.80;;;;;;;;;;4962011;28;20501;-82
2022/03/17 03:39:52;;;;;;;38.00;20.55;;;;;;;;;;4978553;28;20070;-82
2022/03/17 03:42:19;;;;;;;35.60;20.67;;;;;;;;;;5013449;28;20066;-81
2022/03/17 03:44:46;;;;;;;38.25;22.25;;;;;;;;;;5014045;28;20053;-81
2022/03/17 03:47:15;;;;;;;34.58;19.27;;;;;;;;;;4996446;28;20038;-81
2022/03/17 03:49:44;;;;;;;33.65;19.40;;;;;;;;;;5014325;28;20078;-81
2022/03/17 03:52:12;;;;;;;39.50;21.85;;;;;;;;;;5014232;28;20046;-82
2022/03/17 03:54:40;;;;;;;37.88;20.08;;;;;;;;;;5015518;28;20061;-81
2022/03/17 03:57:07;;;;;;;34.40;19.35;;;;;;;;;;5016999;28;20042;-82
2022/03/17 03:59:35;;;;;;;34.88;20.15;;;;;;;;;;5020038;28;20038;-81
2022/03/17 04:02:05;;;;;;;35.55;21.10;;;;;;;;;;5003167;28;20052;-82
2022/03/17 04:04:34;;;;;;;36.25;20.10;;;;;;;;;;5020600;28;20078;-82
2022/03/17 04:07:08;;;;;;;34.70;20.95;;;;;;;;;;5004077;28;20479;-82
2022/03/17 04:09:40;;;;;;;31.60;18.38;;;;;;;;;;5021044;28;20076;-82
2022/03/17 04:12:10;;;;;;;39.80;20.48;;;;;;;;;;5021329;28;20058;-82
2022/03/17 04:14:37;;;;;;;37.08;19.58;;;;;;;;;;5020919;28;20106;-83
2022/03/17 04:17:05;;;;;;;32.50;18.65;;;;;;;;;;5020737;28;20034;-83
2022/03/17 04:19:34;;;;;;;31.88;17.67;;;;;;;;;;5017724;28;20075;-82
2022/03/17 04:22:07;;;;;;;30.95;18.30;;;;;;;;;;4984804;28;20483;-82
2022/03/17 04:24:35;;;;;;;28.40;19.23;;;;;;;;;;4969084;28;20043;-82
2022/03/17 04:27:05;;;;;;;34.15;20.42;;;;;;;;;;5003977;28;20101;-82
2022/03/17 04:29:32;;;;;;;35.33;19.52;;;;;;;;;;5003509;28;20042;-82
2022/03/17 04:32:00;;;;;;;36.08;20.40;;;;;;;;;;5002710;28;20057;-82
2022/03/17 04:34:27;;;;;;;36.72;20.05;;;;;;;;;;5002828;28;20348;-82
2022/03/17 04:36:54;;;;;;;34.53;18.35;;;;;;;;;;5003605;28;20074;-82
2022/03/17 04:39:26;;;;;;;30.90;18.83;;;;;;;;;;4968678;28;20060;-82
2022/03/17 04:41:53;;;;;;;34.92;18.67;;;;;;;;;;5002861;28;20113;-82
2022/03/17 04:44:20;;;;;;;33.33;19.50;;;;;;;;;;5002941;28;20077;-82
2022/03/17 04:46:49;;;;;;;34.13;17.77;;;;;;;;;;4985930;28;20411;-82
2022/03/17 04:49:16;;;;;;;33.33;19.55;;;;;;;;;;4984663;28;20045;-82
2022/03/17 04:51:43;;;;;;;31.60;18.88;;;;;;;;;;5002617;28;20070;-82
2022/03/17 04:54:10;;;;;;;32.33;18.42;;;;;;;;;;4955084;28;20060;-82
2022/03/17 04:56:41;;;;;;;34.92;19.08;;;;;;;;;;4986176;28;20475;-82
2022/03/17 04:59:08;;;;;;;30.77;18.00;;;;;;;;;;5004096;28;20073;-82
2022/03/17 05:01:35;;;;;;;34.15;18.67;;;;;;;;;;4987474;28;20070;-82
2022/03/17 05:04:03;;;;;;;34.33;18.90;;;;;;;;;;4987291;28;20066;-82
2022/03/17 05:06:30;;;;;;;32.67;18.38;;;;;;;;;;4986443;28;20046;-82
2022/03/17 05:08:59;;;;;;;29.52;16.35;;;;;;;;;;4985445;28;20121;-82
2022/03/17 05:11:27;;;;;;;35.17;18.88;;;;;;;;;;4970910;28;20042;-82
2022/03/17 05:13:56;;;;;;;32.33;18.50;;;;;;;;;;5002657;28;20475;-82
2022/03/17 05:16:24;;;;;;;31.27;18.88;;;;;;;;;;5003844;28;20097;-82
2022/03/17 05:18:51;;;;;;;31.92;18.52;;;;;;;;;;4986005;28;20046;-82
2022/03/17 05:21:19;;;;;;;37.50;20.77;;;;;;;;;;5003749;28;20125;-82
2022/03/17 05:23:46;;;;;;;37.65;20.45;;;;;;;;;;4985713;28;20042;-82
2022/03/17 05:26:13;;;;;;;33.75;18.45;;;;;;;;;;4986905;28;20386;-82
2022/03/17 05:28:40;;;;;;;32.42;18.77;;;;;;;;;;4989097;28;20049;-82
2022/03/17 05:31:09;;;;;;;37.33;19.08;;;;;;;;;;5006393;28;20061;-82
2022/03/17 05:33:38;;;;;;;33.33;17.15;;;;;;;;;;5023260;28;20184;-82
2022/03/17 05:36:06;;;;;;;31.75;17.35;;;;;;;;;;5005678;28;20431;-81
2022/03/17 05:38:33;;;;;;;37.42;18.60;;;;;;;;;;5021861;28;20057;-82
2022/03/17 05:41:03;;;;;;;35.35;20.45;;;;;;;;;;5022680;28;20046;-85
2022/03/17 05:43:33;;;;;;;34.00;19.98;;;;;;;;;;4991212;28;20137;-82
2022/03/17 05:46:00;;;;;;;30.15;17.83;;;;;;;;;;5024973;28;20056;-82
2022/03/17 05:48:31;;;;;;;31.80;18.30;;;;;;;;;;5005396;28;20049;-82
2022/03/17 05:50:59;;;;;;;31.50;17.67;;;;;;;;;;5023460;28;20045;-83
2022/03/17 05:53:26;;;;;;;38.92;21.60;;;;;;;;;;5008229;28;20057;-82
2022/03/17 05:55:53;;;;;;;35.20;19.88;;;;;;;;;;5010584;28;20147;-82
2022/03/17 05:58:20;;;;;;;35.10;19.80;;;;;;;;;;5006692;28;20053;-81
2022/03/17 06:00:48;;;;;;;35.10;19.45;;;;;;;;;;5022603;28;20088;-80
2022/03/17 06:03:14;;;;;;;34.10;20.75;;;;;;;;;;5024101;28;20108;-79
2022/03/17 06:05:42;;;;;;;33.67;18.45;;;;;;;;;;5025320;28;20049;-79
2022/03/17 06:08:09;;;;;;;37.63;21.02;;;;;;;;;;5005441;28;20077;-79
2022/03/17 06:10:36;;;;;;;41.13;23.45;;;;;;;;;;5004470;28;20104;-79
2022/03/17 06:13:04;;;;;;;39.17;24.00;;;;;;;;;;5023452;28;20092;-78
2022/03/17 06:15:32;;;;;;;39.80;21.73;;;;;;;;;;5024299;28;20069;-79
2022/03/17 06:18:01;;;;;;;31.67;18.45;;;;;;;;;;5021028;28;20042;-79
2022/03/17 06:20:28;;;;;;;34.00;19.63;;;;;;;;;;5021404;28;20046;-79
2022/03/17 06:22:58;;;;;;;37.97;18.67;;;;;;;;;;5002443;28;20510;-78
2022/03/17 06:25:26;;;;;;;35.40;19.63;;;;;;;;;;5018973;28;20069;-79
2022/03/17 06:27:53;;;;;;;32.80;18.70;;;;;;;;;;5019237;28;20042;-79
2022/03/17 06:30:21;;;;;;;35.15;19.05;;;;;;;;;;5020184;28;20073;-79
2022/03/17 06:32:47;;;;;;;35.45;20.50;;;;;;;;;;5019851;28;20073;-80
2022/03/17 06:35:17;;;;;;;36.85;20.20;;;;;;;;;;5017566;28;20458;-79
2022/03/17 06:37:44;;;;;;;35.58;18.45;;;;;;;;;;5021373;28;20055;-79
2022/03/17 06:40:16;;;;;;;38.38;19.90;;;;;;;;;;5019986;28;20058;-79
2022/03/17 06:42:43;;;;;;;36.80;20.08;;;;;;;;;;5020038;28;20049;-79
2022/03/17 06:45:10;;;;;;;33.80;18.90;;;;;;;;;;5021283;28;20073;-79
2022/03/17 06:47:37;;;;;;;36.70;18.63;;;;;;;;;;5020181;28;20088;-79
2022/03/17 06:50:05;;;;;;;51.17;31.70;;;;;;;;;;5019114;28;20505;-80
2022/03/17 06:52:32;;;;;;;48.05;26.83;;;;;;;;;;5002284;28;20077;-79
2022/03/17 06:54:59;;;;;;;40.10;22.75;;;;;;;;;;5001750;28;20046;-79
2022/03/17 06:57:27;;;;;;;36.03;23.25;;;;;;;;;;5020053;28;20069;-78
2022/03/17 06:59:54;;;;;;;36.92;20.83;;;;;;;;;;5019255;28;20046;-79
2022/03/17 07:02:21;;;;;;;38.28;21.33;;;;;;;;;;5019842;28;20368;-79
2022/03/17 07:04:47;;;;;;;40.55;22.48;;;;;;;;;;5002170;28;20050;-79
2022/03/17 07:07:14;;;;;;;42.40;20.98;;;;;;;;;;5020735;28;20046;-80
2022/03/17 07:09:42;;;;;;;35.45;19.77;;;;;;;;;;5018592;28;20041;-79
2022/03/17 07:12:10;;;;;;;36.53;20.13;;;;;;;;;;5019359;28;20107;-80
2022/03/17 07:14:38;;;;;;;39.55;21.85;;;;;;;;;;5018789;28;20046;-81
2022/03/17 07:17:05;;;;;;;36.63;21.52;;;;;;;;;;5017635;28;20077;-80
2022/03/17 07:19:38;;;;;;;37.35;22.17;;;;;;;;;;5018590;28;20078;-79
2022/03/17 07:22:07;;;;;;;35.88;21.05;;;;;;;;;;5017500;28;20050;-79
2022/03/17 07:24:34;;;;;;;38.35;22.65;;;;;;;;;;5017501;28;20042;-79
2022/03/17 07:27:02;;;;;;;36.60;21.55;;;;;;;;;;5018978;28;20128;-80
2022/03/17 07:29:31;;;;;;;40.17;22.63;;;;;;;;;;5018414;28;20073;-80
2022/03/17 07:31:59;;;;;;;36.58;21.48;;;;;;;;;;5018082;28;20074;-79
2022/03/17 07:34:26;;;;;;;38.47;21.20;;;;;;;;;;5019657;28;20050;-80
2022/03/17 07:36:53;;;;;;;38.88;21.33;;;;;;;;;;5017096;28;20037;-79
2022/03/17 07:39:20;;;;;;;37.03;21.58;;;;;;;;;;5018358;28;20077;-80
2022/03/17 07:41:46;;;;;;;37.90;22.42;;;;;;;;;;5017536;28;20069;-79
2022/03/17 07:44:14;;;;;;;36.58;21.48;;;;;;;;;;5020492;28;20049;-79
2022/03/17 07:46:40;;;;;;;37.88;21.25;;;;;;;;;;5020542;28;20116;-79
2022/03/17 07:49:08;;;;;;;37.45;21.25;;;;;;;;;;5019984;28;20084;-79
2022/03/17 07:51:36;;;;;;;38.38;21.75;;;;;;;;;;5021756;28;20050;-80
2022/03/17 07:54:03;;;;;;;40.10;22.80;;;;;;;;;;5018989;28;20042;-81
2022/03/17 07:56:30;;;;;;;39.03;22.17;;;;;;;;;;5017499;28;20448;-82
2022/03/17 07:58:57;;;;;;;38.45;21.65;;;;;;;;;;5002544;28;20096;-81
2022/03/17 08:01:25;;;;;;;39.72;22.38;;;;;;;;;;5017246;28;20532;-81
2022/03/17 08:03:53;;;;;;;34.22;21.23;;;;;;;;;;5016873;28;20045;-80
2022/03/17 08:06:25;;;;;;;40.50;22.30;;;;;;;;;;4998424;28;20069;-79
2022/03/17 08:08:52;;;;;;;38.47;22.80;;;;;;;;;;5018244;28;20056;-80
2022/03/17 08:11:20;;;;;;;34.15;20.85;;;;;;;;;;5002710;28;20049;-80
2022/03/17 08:13:47;;;;;;;40.20;21.33;;;;;;;;;;5000229;28;20493;-80
2022/03/17 08:16:14;;;;;;;40.53;22.20;;;;;;;;;;5000935;28;20097;-80
2022/03/17 08:18:42;;;;;;;38.15;22.15;;;;;;;;;;5017521;28;20394;-80
2022/03/17 08:21:09;;;;;;;39.63;21.38;;;;;;;;;;5017236;28;20046;-80
2022/03/17 08:23:37;;;;;;;33.20;21.20;;;;;;;;;;5019230;28;20108;-79
2022/03/17 08:26:04;;;;;;;38.17;22.17;;;;;;;;;;5020150;28;20038;-79
2022/03/17 08:28:31;;;;;;;37.55;21.38;;;;;;;;;;5018364;28;20048;-79
2022/03/17 08:30:57;;;;;;;40.42;23.13;;;;;;;;;;5016529;28;20108;-79
2022/03/17 08:33:24;;;;;;;34.20;20.55;;;;;;;;;;4999227;28;20042;-79
2022/03/17 08:35:52;;;;;;;36.58;22.40;;;;;;;;;;5016056;28;20042;-79
2022/03/17 08:38:18;;;;;;;37.28;21.88;;;;;;;;;;5016706;28;20053;-79
2022/03/17 08:40:46;;;;;;;35.45;20.80;;;;;;;;;;5017185;28;20050;-80
2022/03/17 08:43:13;;;;;;;36.42;19.70;;;;;;;;;;5017589;28;20085;-80
2022/03/17 08:51:09;;;;;;;33.65;20.60;;;;;;;;;;5019324;28;20516;-79
2022/03/17 08:53:36;;;;;;;32.47;19.63;;;;;;;;;;5020251;28;20046;-80
2022/03/17 08:56:04;;;;;;;33.67;20.63;;;;;;;;;;5020224;28;20439;-80
2022/03/17 08:58:34;;;;;;;32.60;20.42;;;;;;;;;;5020484;28;20069;-79
2022/03/17 09:01:03;;;;;;;36.30;20.52;;;;;;;;;;5019586;28;20434;-79
2022/03/17 09:03:30;;;;;;;31.00;19.83;;;;;;;;;;4988008;28;20046;-78
2022/03/17 09:05:59;;;;;;;32.53;19.48;;;;;;;;;;5020667;28;20100;-80
2022/03/17 09:08:27;;;;;;;32.70;20.13;;;;;;;;;;5020336;28;20076;-79
2022/03/17 09:10:55;;;;;;;31.65;19.23;;;;;;;;;;5020225;28;20042;-80
2022/03/17 09:13:25;;;;;;;31.83;19.38;;;;;;;;;;5021031;28;20104;-79
2022/03/17 09:15:52;;;;;;;35.80;20.80;;;;;;;;;;5020047;28;20046;-78
2022/03/17 09:18:19;;;;;;;34.10;20.48;;;;;;;;;;5020358;28;20084;-79
2022/03/17 09:20:45;;;;;;;32.45;19.10;;;;;;;;;;5019639;28;20536;-78
2022/03/17 09:23:12;;;;;;;35.08;20.23;;;;;;;;;;5021075;28;20057;-78
2022/03/17 09:25:39;;;;;;;33.63;20.33;;;;;;;;;;5019453;28;20466;-79
2022/03/17 09:28:09;;;;;;;34.70;19.67;;;;;;;;;;5020861;28;20103;-80
2022/03/17 09:30:38;;;;;;;33.90;20.67;;;;;;;;;;5020200;28;20050;-79
2022/03/17 09:33:09;;;;;;;34.92;20.33;;;;;;;;;;5020760;28;20042;-81
2022/03/17 09:35:37;;;;;;;39.17;22.45;;;;;;;;;;5019766;28;20042;-79
2022/03/17 09:38:06;;;;;;;32.10;19.35;;;;;;;;;;5020203;28;20080;-80
2022/03/17 09:40:34;;;;;;;30.45;20.08;;;;;;;;;;5006849;28;20046;-80
2022/03/17 09:43:21;;;;;;;33.15;19.98;;;;;;;;;;4999282;28;20096;-81
2022/03/17 09:45:52;;;;;;;37.88;21.95;;;;;;;;;;4999489;28;20068;-80
2022/03/17 09:48:20;;;;;;;33.70;20.67;;;;;;;;;;4999148;28;20042;-80
2022/03/17 09:50:49;;;;;;;30.13;18.30;;;;;;;;;;4999371;28;20046;-80
2022/03/17 09:53:17;;;;;;;31.15;20.27;;;;;;;;;;4982266;28;20085;-79
2022/03/17 09:55:44;;;;;;;34.05;20.45;;;;;;;;;;4999638;28;20074;-80
2022/03/17 09:58:12;;;;;;;34.42;21.42;;;;;;;;;;4988208;28;20049;-80
2022/03/17 10:00:53;;;;;;;32.90;19.38;;;;;;;;;;5006535;28;20054;-80
2022/03/17 10:03:25;;;;;;;29.80;19.50;;;;;;;;;;5001615;28;20113;-80
2022/03/17 10:05:52;;;;;;;32.85;19.25;;;;;;;;;;4999814;28;20476;-79
2022/03/17 10:08:20;;;;;;;40.72;20.67;;;;;;;;;;5000888;28;20050;-79
2022/03/17 10:10:47;;;;;;;31.27;19.60;;;;;;;;;;5000574;28;20074;-79
2022/03/17 10:13:16;;;;;;;33.90;20.23;;;;;;;;;;4999875;28;20533;-79
2022/03/17 10:15:44;;;;;;;32.28;19.85;;;;;;;;;;5000429;28;20046;-79
2022/03/17 10:18:25;;;;;;;35.42;21.02;;;;;;;;;;4999853;28;20073;-80
2022/03/17 10:21:09;;;;;;;32.58;20.85;;;;;;;;;;4998056;28;20054;-80
2022/03/17 10:23:49;;;;;;;30.90;18.95;;;;;;;;;;4997714;28;20042;-81
2022/03/17 10:26:32;;;;;;;30.80;18.65;;;;;;;;;;4997890;28;20073;-80
2022/03/17 10:29:10;;;;;;;30.00;19.95;;;;;;;;;;4996843;28;20042;-80
2022/03/17 10:31:51;;;;;;;33.03;20.15;;;;;;;;;;4998400;28;20042;-80
2022/03/17 10:34:23;;;;;;;29.75;19.85;;;;;;;;;;4980625;28;20056;-79
2022/03/17 10:36:50;;;;;;;31.75;20.45;;;;;;;;;;4997972;28;20471;-80
2022/03/17 10:39:21;;;;;;;32.03;20.50;;;;;;;;;;4971974;28;20454;-80
2022/03/17 10:41:51;;;;;;;32.17;20.48;;;;;;;;;;4979075;28;20094;-81
2022/03/17 10:44:22;;;;;;;34.05;21.80;;;;;;;;;;4961763;28;20427;-81
2022/03/17 10:46:56;;;;;;;31.35;19.95;;;;;;;;;;4963912;28;20456;-80
2022/03/17 10:49:24;;;;;;;31.52;19.02;;;;;;;;;;4963718;28;20447;-79
2022/03/17 10:51:54;;;;;;;35.33;20.23;;;;;;;;;;4981489;28;20043;-80
2022/03/17 10:54:28;;;;;;;30.83;19.15;;;;;;;;;;4980701;28;20047;-80
2022/03/17 10:57:02;;;;;;;32.85;20.10;;;;;;;;;;4978877;28;20490;-81
2022/03/17 10:59:39;;;;;;;30.27;19.80;;;;;;;;;;4980060;28;20089;-80
2022/03/17 11:02:11;;;;;;;31.75;19.52;;;;;;;;;;4963096;28;20043;-81
2022/03/17 11:04:41;;;;;;;30.73;19.85;;;;;;;;;;4980041;28;20077;-81
2022/03/17 11:07:11;;;;;;;33.97;19.58;;;;;;;;;;4979873;28;20058;-80
2022/03/17 11:09:38;;;;;;;32.70;19.98;;;;;;;;;;4979602;28;20043;-80
2022/03/17 11:12:07;;;;;;;32.55;19.35;;;;;;;;;;4979767;28;20134;-81
2022/03/17 11:14:36;;;;;;;32.38;21.25;;;;;;;;;;4982222;28;20125;-80
2022/03/17 11:17:04;;;;;;;32.95;20.77;;;;;;;;;;4949553;28;20050;-81
2022/03/17 11:19:33;;;;;;;32.83;20.23;;;;;;;;;;4979630;28;20043;-81
2022/03/17 11:22:08;;;;;;;31.30;19.25;;;;;;;;;;4963414;28;20101;-80
2022/03/17 11:24:36;;;;;;;27.40;18.08;;;;;;;;;;4980354;28;20055;-80
2022/03/17 11:27:10;;;;;;;33.85;20.52;;;;;;;;;;4979911;28;20078;-80
2022/03/17 11:29:44;;;;;;;33.13;20.23;;;;;;;;;;4963705;28;20086;-80
2022/03/17 11:32:25;;;;;;;32.83;20.05;;;;;;;;;;4980324;28;20125;-82
2022/03/17 11:35:07;;;;;;;32.83;20.80;;;;;;;;;;4980651;28;20074;-81
2022/03/17 11:37:36;;;;;;;26.83;18.42;;;;;;;;;;4963242;28;20082;-81
2022/03/17 11:40:15;;;;;;;33.35;20.48;;;;;;;;;;4992143;28;20085;-81
2022/03/17 11:42:46;;;;;;;32.20;19.85;;;;;;;;;;5018474;28;20073;-81
2022/03/17 11:45:37;;;;;;;30.40;19.52;;;;;;;;;;5018926;28;20453;-81
2022/03/17 11:48:09;;;;;;;31.30;20.02;;;;;;;;;;5017661;28;20557;-81
2022/03/17 11:50:41;;;;;;;29.38;18.65;;;;;;;;;;5001015;28;20081;-81
2022/03/17 11:53:20;;;;;;;32.28;19.50;;;;;;;;;;5017875;28;20494;-81
2022/03/17 11:55:56;;;;;;;32.15;19.60;;;;;;;;;;5018309;28;20351;-81
2022/03/17 11:58:24;;;;;;;25.10;17.88;;;;;;;;;;5020999;28;20046;-81
2022/03/17 12:00:53;;;;;;;30.98;18.88;;;;;;;;;;5019609;28;20046;-82
2022/03/17 12:03:30;;;;;;;31.45;18.90;;;;;;;;;;5018009;28;20037;-81
2022/03/17 12:06:17;;;;;;;27.60;17.48;;;;;;;;;;4999713;28;20375;-81
2022/03/17 12:08:55;;;;;;;31.52;19.15;;;;;;;;;;5017411;28;20073;-81
2022/03/17 12:11:24;;;;;;;28.42;18.73;;;;;;;;;;5019212;28;20042;-80
2022/03/17 12:14:19;;;;;;;28.95;18.88;;;;;;;;;;5018573;28;20046;-80
2022/03/17 12:16:51;;;;;;;34.97;20.65;;;;;;;;;;5015911;28;20069;-82
2022/03/17 12:19:35;;;;;;;28.83;17.88;;;;;;;;;;5019648;28;20046;-81
2022/03/17 12:22:06;;;;;;;29.58;18.90;;;;;;;;;;5020946;28;20121;-80
2022/03/17 12:24:38;;;;;;;29.98;18.90;;;;;;;;;;5022854;28;20057;-80
2022/03/17 12:27:06;;;;;;;32.55;18.73;;;;;;;;;;5022359;28;20041;-80
2022/03/17 12:29:33;;;;;;;32.17;20.27;;;;;;;;;;5025516;28;20370;-80
2022/03/17 12:32:07;;;;;;;29.70;19.33;;;;;;;;;;5009984;28;20371;-80
2022/03/17 12:34:35;;;;;;;31.48;19.02;;;;;;;;;;5030085;28;20046;-81
2022/03/17 12:37:04;;;;;;;32.17;19.27;;;;;;;;;;5028522;28;20046;-82
2022/03/17 12:39:40;;;;;;;31.17;19.42;;;;;;;;;;5018590;28;20043;-79
2022/03/17 12:42:15;;;;;;;28.25;18.55;;;;;;;;;;5004722;28;20054;-81
2022/03/17 12:44:56;;;;;;;33.75;20.85;;;;;;;;;;5005946;28;20046;-81
2022/03/17 12:47:26;;;;;;;29.05;19.33;;;;;;;;;;5004481;28;20042;-81
2022/03/17 12:49:54;;;;;;;29.83;19.63;;;;;;;;;;5003932;28;20230;-82
2022/03/17 12:52:24;;;;;;;33.28;20.77;;;;;;;;;;5005179;28;20501;-81
2022/03/17 12:54:54;;;;;;;33.15;20.65;;;;;;;;;;5006287;28;20462;-81
2022/03/17 12:57:23;;;;;;;33.13;20.77;;;;;;;;;;5005780;28;20479;-81
2022/03/17 12:59:51;;;;;;;32.42;20.63;;;;;;;;;;5005372;28;20097;-81
2022/03/17 13:02:22;;;;;;;34.30;20.20;;;;;;;;;;5006274;28;20493;-81
2022/03/17 13:04:50;;;;;;;31.30;19.80;;;;;;;;;;5006568;28;20089;-81
2022/03/17 13:07:17;;;;;;;34.25;20.17;;;;;;;;;;5006005;28;20050;-81
2022/03/17 13:09:45;;;;;;;35.67;21.20;;;;;;;;;;5005764;28;20056;-80
2022/03/17 13:14:58;;;;;;;;;;;;;;;;;;5007021;28;20105;-81
2022/03/17 13:17:36;;;;;;;33.17;20.30;;;;;;;;;;5006113;28;19958;-81
2022/03/17 13:20:07;;;;;;;31.70;21.20;;;;;;;;;;5006767;28;20475;-82
2022/03/17 13:22:39;;;;;;;31.80;21.77;;;;;;;;;;5006884;28;20074;-81
2022/03/17 13:25:08;;;;;;;33.42;21.42;;;;;;;;;;5006580;28;20065;-81
2022/03/17 13:27:39;;;;;;;36.00;21.75;;;;;;;;;;5006656;28;20046;-81
2022/03/17 13:30:14;;;;;;;34.63;23.00;;;;;;;;;;5007023;28;20080;-82
2022/03/17 13:32:43;;;;;;;42.55;23.15;;;;;;;;;;5006104;28;20038;-82
2022/03/17 13:35:14;;;;;;;35.83;22.35;;;;;;;;;;4989166;28;20048;-82
2022/03/17 13:37:43;;;;;;;36.13;21.38;;;;;;;;;;5005715;28;20070;-81
2022/03/17 13:40:14;;;;;;;35.35;22.08;;;;;;;;;;5005835;28;20062;-82
2022/03/17 13:43:04;;;;;;;33.67;21.10;;;;;;;;;;4989374;28;20053;-81
2022/03/17 13:45:32;;;;;;;33.63;21.10;;;;;;;;;;5006636;28;20077;-81
2022/03/17 13:48:04;;;;;;;31.58;20.80;;;;;;;;;;5006435;28;20038;-80
2022/03/17 13:50:32;;;;;;;34.72;22.67;;;;;;;;;;5003923;28;20039;-80
2022/03/17 13:53:01;;;;;;;34.55;21.95;;;;;;;;;;5004096;28;20053;-81
2022/03/17 13:55:40;;;;;;;36.88;22.80;;;;;;;;;;5003613;28;20039;-81
2022/03/17 13:58:19;;;;;;;33.50;22.38;;;;;;;;;;5004780;28;20047;-81
2022/03/17 14:00:48;;;;;;;31.80;20.63;;;;;;;;;;5004355;28;20443;-80
2022/03/17 14:03:19;;;;;;;34.28;22.58;;;;;;;;;;5002681;28;20494;-80
2022/03/17 14:06:10;;;;;;;32.35;22.50;;;;;;;;;;5003945;28;20077;-81
2022/03/17 14:08:39;;;;;;;33.65;22.20;;;;;;;;;;5002615;28;20050;-81
2022/03/17 14:11:07;;;;;;;36.03;22.85;;;;;;;;;;4990807;28;20046;-81
2022/03/17 14:13:40;;;;;;;35.30;22.83;;;;;;;;;;5007601;28;20053;-81
2022/03/17 14:16:09;;;;;;;34.72;20.65;;;;;;;;;;4974378;28;20478;-81
2022/03/17 14:18:36;;;;;;;32.45;20.40;;;;;;;;;;5005662;28;20088;-81
2022/03/17 14:21:03;;;;;;;31.60;20.88;;;;;;;;;;5006159;28;20105;-81
2022/03/17 14:26:16;;;;;;;36.42;21.45;;;;;;;;;;5003148;28;20199;-78
2022/03/17 14:28:44;;;;;;;35.10;23.00;;;;;;;;;;4999769;28;20108;-78
2022/03/17 14:31:12;;;;;;;38.05;22.42;;;;;;;;;;5000398;28;20077;-77
2022/03/17 14:33:40;;;;;;;33.22;22.15;;;;;;;;;;5002535;28;20042;-80
2022/03/17 14:36:07;;;;;;;37.92;21.55;;;;;;;;;;5004468;28;20058;-81
2022/03/17 14:38:34;;;;;;;40.33;21.70;;;;;;;;;;5003033;28;20130;-80
2022/03/17 14:41:02;;;;;;;33.47;21.45;;;;;;;;;;5000879;28;20062;-81
2022/03/17 14:43:30;;;;;;;34.00;22.52;;;;;;;;;;5003093;28;20038;-81
2022/03/17 14:45:59;;;;;;;33.60;21.92;;;;;;;;;;5002142;28;20046;-81
2022/03/17 14:48:25;;;;;;;36.35;21.15;;;;;;;;;;5002407;28;20042;-81
2022/03/17 14:50:54;;;;;;;36.05;22.40;;;;;;;;;;5002305;28;20038;-81